sensor_id;sensor_type;location;lat;lon;timestamp;P1;durP1;ratioP1;P2;durP2;ratioP2
10633;SDS011;5365;51.640;8.106;2024-02-21T00:02:19;13.70;;;5.43;;
10633;SDS011;5365;51.640;8.106;2024-02-21T00:05:21;10.00;;;3.50;;
10633;SDS011;5365;51.640;8.106;2024-02-21T00:08:22;7.38;;;3.25;;
10633;SDS011;5365;51.640;8.106;2024-02-21T00:11:24;8.80;;;4.47;;
10633;SDS011;5365;51.640;8.106;2024-02-21T00:14:26;9.38;;;3.88;;
10633;SDS011;5365;51.640;8.106;2024-02-21T00:17:27;4.43;;;2.78;;
10633;SDS011;5365;51.640;8.106;2024-02-21T00:20:29;9.55;;;2.75;;
10633;SDS011;5365;51.640;8.106;2024-02-21T00:23:32;8.15;;;2.72;;
10633;SDS011;5365;51.640;8.106;2024-02-21T00:26:33;8.50;;;3.70;;
10633;SDS011;5365;51.640;8.106;2024-02-21T00:29:35;13.52;;;5.07;;
10633;SDS011;5365;51.640;8.106;2024-02-21T00:32:37;6.60;;;2.78;;
10633;SDS011;5365;51.640;8.106;2024-02-21T00:35:39;6.13;;;3.30;;
10633;SDS011;5365;51.640;8.106;2024-02-21T00:38:41;7.30;;;3.60;;
10633;SDS011;5365;51.640;8.106;2024-02-21T00:41:43;17.38;;;5.82;;
10633;SDS011;5365;51.640;8.106;2024-02-21T00:44:44;16.90;;;4.38;;
10633;SDS011;5365;51.640;8.106;2024-02-21T00:47:49;5.75;;;3.47;;
10633;SDS011;5365;51.640;8.106;2024-02-21T00:50:51;7.43;;;3.67;;
10633;SDS011;5365;51.640;8.106;2024-02-21T00:53:53;13.15;;;5.68;;
10633;SDS011;5365;51.640;8.106;2024-02-21T00:56:54;8.80;;;4.07;;
10633;SDS011;5365;51.640;8.106;2024-02-21T00:59:56;8.48;;;4.65;;
10633;SDS011;5365;51.640;8.106;2024-02-21T01:02:58;11.07;;;3.80;;
10633;SDS011;5365;51.640;8.106;2024-02-21T01:05:59;13.30;;;5.32;;
10633;SDS011;5365;51.640;8.106;2024-02-21T01:09:01;13.27;;;4.20;;
10633;SDS011;5365;51.640;8.106;2024-02-21T01:12:03;13.07;;;5.15;;
10633;SDS011;5365;51.640;8.106;2024-02-21T01:15:04;10.32;;;3.95;;
10633;SDS011;5365;51.640;8.106;2024-02-21T01:18:06;11.20;;;3.67;;
10633;SDS011;5365;51.640;8.106;2024-02-21T01:21:08;8.73;;;2.30;;
10633;SDS011;5365;51.640;8.106;2024-02-21T01:24:11;6.15;;;3.22;;
10633;SDS011;5365;51.640;8.106;2024-02-21T01:27:12;3.60;;;2.30;;
10633;SDS011;5365;51.640;8.106;2024-02-21T01:30:14;6.22;;;2.90;;
10633;SDS011;5365;51.640;8.106;2024-02-21T01:33:16;8.90;;;3.55;;
10633;SDS011;5365;51.640;8.106;2024-02-21T01:36:17;7.75;;;3.00;;
10633;SDS011;5365;51.640;8.106;2024-02-21T01:39:19;15.27;;;3.22;;
10633;SDS011;5365;51.640;8.106;2024-02-21T01:42:21;10.32;;;4.07;;
10633;SDS011;5365;51.640;8.106;2024-02-21T01:45:23;15.98;;;3.78;;
10633;SDS011;5365;51.640;8.106;2024-02-21T01:48:24;9.50;;;3.78;;
10633;SDS011;5365;51.640;8.106;2024-02-21T01:51:26;10.15;;;3.60;;
10633;SDS011;5365;51.640;8.106;2024-02-21T01:54:28;7.72;;;3.72;;
10633;SDS011;5365;51.640;8.106;2024-02-21T01:57:30;5.60;;;2.92;;
10633;SDS011;5365;51.640;8.106;2024-02-21T02:00:32;6.63;;;2.50;;
10633;SDS011;5365;51.640;8.106;2024-02-21T02:03:33;4.93;;;2.72;;
10633;SDS011;5365;51.640;8.106;2024-02-21T02:06:36;11.30;;;4.32;;
10633;SDS011;5365;51.640;8.106;2024-02-21T02:09:37;6.53;;;2.35;;
10633;SDS011;5365;51.640;8.106;2024-02-21T02:12:39;5.07;;;2.35;;
10633;SDS011;5365;51.640;8.106;2024-02-21T02:15:41;8.07;;;2.30;;
10633;SDS011;5365;51.640;8.106;2024-02-21T02:18:43;3.22;;;1.85;;
10633;SDS011;5365;51.640;8.106;2024-02-21T02:21:53;7.53;;;3.63;;
10633;SDS011;5365;51.640;8.106;2024-02-21T02:24:57;4.80;;;2.95;;
10633;SDS011;5365;51.640;8.106;2024-02-21T02:27:59;7.18;;;3.13;;
10633;SDS011;5365;51.640;8.106;2024-02-21T02:31:01;9.07;;;3.90;;
10633;SDS011;5365;51.640;8.106;2024-02-21T02:34:03;10.23;;;4.63;;
10633;SDS011;5365;51.640;8.106;2024-02-21T02:37:05;8.80;;;3.38;;
10633;SDS011;5365;51.640;8.106;2024-02-21T02:40:06;12.57;;;3.97;;
10633;SDS011;5365;51.640;8.106;2024-02-21T02:43:08;4.15;;;2.40;;
10633;SDS011;5365;51.640;8.106;2024-02-21T02:46:10;10.98;;;4.80;;
10633;SDS011;5365;51.640;8.106;2024-02-21T02:49:12;6.40;;;3.00;;
10633;SDS011;5365;51.640;8.106;2024-02-21T02:52:13;13.70;;;2.67;;
10633;SDS011;5365;51.640;8.106;2024-02-21T02:55:15;6.63;;;2.15;;
10633;SDS011;5365;51.640;8.106;2024-02-21T02:58:17;6.78;;;1.85;;
10633;SDS011;5365;51.640;8.106;2024-02-21T03:01:18;4.32;;;2.08;;
10633;SDS011;5365;51.640;8.106;2024-02-21T03:04:20;8.43;;;2.92;;
10633;SDS011;5365;51.640;8.106;2024-02-21T03:07:21;8.07;;;2.67;;
10633;SDS011;5365;51.640;8.106;2024-02-21T03:10:23;4.30;;;2.15;;
10633;SDS011;5365;51.640;8.106;2024-02-21T03:13:25;5.95;;;3.30;;
10633;SDS011;5365;51.640;8.106;2024-02-21T03:16:27;4.63;;;2.83;;
10633;SDS011;5365;51.640;8.106;2024-02-21T03:19:29;7.15;;;2.05;;
10633;SDS011;5365;51.640;8.106;2024-02-21T03:22:31;9.10;;;2.67;;
10633;SDS011;5365;51.640;8.106;2024-02-21T03:25:33;5.05;;;3.05;;
10633;SDS011;5365;51.640;8.106;2024-02-21T03:28:35;5.82;;;2.97;;
10633;SDS011;5365;51.640;8.106;2024-02-21T03:31:37;4.20;;;1.77;;
10633;SDS011;5365;51.640;8.106;2024-02-21T03:34:38;3.53;;;2.50;;
10633;SDS011;5365;51.640;8.106;2024-02-21T03:37:40;10.82;;;3.50;;
10633;SDS011;5365;51.640;8.106;2024-02-21T03:40:41;4.00;;;2.25;;
10633;SDS011;5365;51.640;8.106;2024-02-21T03:43:43;13.50;;;3.42;;
10633;SDS011;5365;51.640;8.106;2024-02-21T03:46:45;3.53;;;1.98;;
10633;SDS011;5365;51.640;8.106;2024-02-21T03:49:46;3.58;;;2.35;;
10633;SDS011;5365;51.640;8.106;2024-02-21T03:52:48;11.50;;;2.13;;
10633;SDS011;5365;51.640;8.106;2024-02-21T03:55:50;5.60;;;2.60;;
10633;SDS011;5365;51.640;8.106;2024-02-21T03:58:51;5.68;;;2.60;;
10633;SDS011;5365;51.640;8.106;2024-02-21T04:01:53;2.40;;;0.82;;
10633;SDS011;5365;51.640;8.106;2024-02-21T04:04:55;6.68;;;2.95;;
10633;SDS011;5365;51.640;8.106;2024-02-21T04:07:56;3.88;;;1.77;;
10633;SDS011;5365;51.640;8.106;2024-02-21T04:10:58;9.20;;;2.00;;
10633;SDS011;5365;51.640;8.106;2024-02-21T04:14:00;10.18;;;3.85;;
10633;SDS011;5365;51.640;8.106;2024-02-21T04:17:01;12.00;;;2.47;;
10633;SDS011;5365;51.640;8.106;2024-02-21T04:20:04;4.38;;;2.17;;
10633;SDS011;5365;51.640;8.106;2024-02-21T04:23:06;6.10;;;2.50;;
10633;SDS011;5365;51.640;8.106;2024-02-21T04:26:08;6.88;;;2.90;;
10633;SDS011;5365;51.640;8.106;2024-02-21T04:29:10;5.70;;;2.60;;
10633;SDS011;5365;51.640;8.106;2024-02-21T04:32:12;9.63;;;3.80;;
10633;SDS011;5365;51.640;8.106;2024-02-21T04:35:13;4.15;;;1.95;;
10633;SDS011;5365;51.640;8.106;2024-02-21T04:38:15;4.55;;;1.77;;
10633;SDS011;5365;51.640;8.106;2024-02-21T04:41:17;4.10;;;1.98;;
10633;SDS011;5365;51.640;8.106;2024-02-21T04:44:18;3.65;;;2.28;;
10633;SDS011;5365;51.640;8.106;2024-02-21T04:47:23;6.68;;;3.72;;
10633;SDS011;5365;51.640;8.106;2024-02-21T04:50:26;2.28;;;1.38;;
10633;SDS011;5365;51.640;8.106;2024-02-21T04:53:28;6.95;;;2.75;;
10633;SDS011;5365;51.640;8.106;2024-02-21T04:56:30;8.05;;;2.85;;
10633;SDS011;5365;51.640;8.106;2024-02-21T04:59:32;3.00;;;1.55;;
10633;SDS011;5365;51.640;8.106;2024-02-21T05:02:33;4.72;;;2.45;;
10633;SDS011;5365;51.640;8.106;2024-02-21T05:05:35;2.20;;;0.85;;
10633;SDS011;5365;51.640;8.106;2024-02-21T05:08:37;4.45;;;1.50;;
10633;SDS011;5365;51.640;8.106;2024-02-21T05:11:38;5.65;;;2.28;;
10633;SDS011;5365;51.640;8.106;2024-02-21T05:14:40;3.58;;;1.98;;
10633;SDS011;5365;51.640;8.106;2024-02-21T05:17:42;5.38;;;1.92;;
10633;SDS011;5365;51.640;8.106;2024-02-21T05:20:44;1.95;;;1.40;;
10633;SDS011;5365;51.640;8.106;2024-02-21T05:23:46;7.90;;;2.47;;
10633;SDS011;5365;51.640;8.106;2024-02-21T05:26:48;6.30;;;1.85;;
10633;SDS011;5365;51.640;8.106;2024-02-21T05:29:49;6.35;;;2.85;;
10633;SDS011;5365;51.640;8.106;2024-02-21T05:32:51;4.22;;;1.90;;
10633;SDS011;5365;51.640;8.106;2024-02-21T05:35:53;4.60;;;2.22;;
10633;SDS011;5365;51.640;8.106;2024-02-21T05:38:54;6.40;;;1.65;;
10633;SDS011;5365;51.640;8.106;2024-02-21T05:41:56;6.32;;;2.03;;
10633;SDS011;5365;51.640;8.106;2024-02-21T05:44:57;5.30;;;2.65;;
10633;SDS011;5365;51.640;8.106;2024-02-21T05:47:59;4.57;;;1.48;;
10633;SDS011;5365;51.640;8.106;2024-02-21T05:51:01;4.78;;;1.95;;
10633;SDS011;5365;51.640;8.106;2024-02-21T05:54:03;4.07;;;1.58;;
10633;SDS011;5365;51.640;8.106;2024-02-21T05:57:07;3.25;;;2.03;;
10633;SDS011;5365;51.640;8.106;2024-02-21T06:00:09;5.15;;;2.30;;
10633;SDS011;5365;51.640;8.106;2024-02-21T06:03:13;7.40;;;2.45;;
10633;SDS011;5365;51.640;8.106;2024-02-21T06:06:15;4.93;;;2.30;;
10633;SDS011;5365;51.640;8.106;2024-02-21T06:09:17;5.30;;;2.17;;
10633;SDS011;5365;51.640;8.106;2024-02-21T06:12:18;5.75;;;2.15;;
10633;SDS011;5365;51.640;8.106;2024-02-21T06:15:20;4.22;;;1.67;;
10633;SDS011;5365;51.640;8.106;2024-02-21T06:18:21;5.03;;;1.73;;
10633;SDS011;5365;51.640;8.106;2024-02-21T06:21:23;4.13;;;2.30;;
10633;SDS011;5365;51.640;8.106;2024-02-21T06:24:25;5.88;;;1.58;;
10633;SDS011;5365;51.640;8.106;2024-02-21T06:27:26;6.00;;;2.42;;
10633;SDS011;5365;51.640;8.106;2024-02-21T06:30:28;10.93;;;2.15;;
10633;SDS011;5365;51.640;8.106;2024-02-21T06:33:30;5.32;;;2.47;;
10633;SDS011;5365;51.640;8.106;2024-02-21T06:36:31;5.15;;;1.92;;
10633;SDS011;5365;51.640;8.106;2024-02-21T06:39:34;4.68;;;2.05;;
10633;SDS011;5365;51.640;8.106;2024-02-21T06:42:37;6.55;;;3.15;;
10633;SDS011;5365;51.640;8.106;2024-02-21T06:45:39;6.18;;;1.30;;
10633;SDS011;5365;51.640;8.106;2024-02-21T06:48:41;6.30;;;1.70;;
10633;SDS011;5365;51.640;8.106;2024-02-21T06:51:44;5.68;;;2.42;;
10633;SDS011;5365;51.640;8.106;2024-02-21T06:54:46;4.80;;;1.45;;
10633;SDS011;5365;51.640;8.106;2024-02-21T06:57:48;2.80;;;1.65;;
10633;SDS011;5365;51.640;8.106;2024-02-21T07:00:50;2.67;;;1.30;;
10633;SDS011;5365;51.640;8.106;2024-02-21T07:03:52;6.38;;;1.77;;
10633;SDS011;5365;51.640;8.106;2024-02-21T07:06:53;1.92;;;1.23;;
10633;SDS011;5365;51.640;8.106;2024-02-21T07:09:55;3.03;;;1.40;;
10633;SDS011;5365;51.640;8.106;2024-02-21T07:12:57;4.00;;;1.08;;
10633;SDS011;5365;51.640;8.106;2024-02-21T07:15:58;4.13;;;1.38;;
10633;SDS011;5365;51.640;8.106;2024-02-21T07:19:00;2.63;;;1.40;;
10633;SDS011;5365;51.640;8.106;2024-02-21T07:22:02;4.18;;;1.38;;
10633;SDS011;5365;51.640;8.106;2024-02-21T07:25:04;3.65;;;2.05;;
10633;SDS011;5365;51.640;8.106;2024-02-21T07:28:06;4.05;;;1.85;;
10633;SDS011;5365;51.640;8.106;2024-02-21T07:31:08;1.23;;;1.00;;
10633;SDS011;5365;51.640;8.106;2024-02-21T07:34:10;1.70;;;0.70;;
10633;SDS011;5365;51.640;8.106;2024-02-21T07:37:12;6.20;;;1.98;;
10633;SDS011;5365;51.640;8.106;2024-02-21T07:40:14;4.47;;;1.73;;
10633;SDS011;5365;51.640;8.106;2024-02-21T07:43:16;5.95;;;3.30;;
10633;SDS011;5365;51.640;8.106;2024-02-21T07:46:18;4.72;;;1.38;;
10633;SDS011;5365;51.640;8.106;2024-02-21T07:49:19;3.40;;;1.15;;
10633;SDS011;5365;51.640;8.106;2024-02-21T07:52:21;5.05;;;1.38;;
10633;SDS011;5365;51.640;8.106;2024-02-21T07:55:23;2.95;;;1.40;;
10633;SDS011;5365;51.640;8.106;2024-02-21T07:58:24;3.05;;;1.00;;
10633;SDS011;5365;51.640;8.106;2024-02-21T08:01:26;2.28;;;1.10;;
10633;SDS011;5365;51.640;8.106;2024-02-21T08:04:28;3.00;;;1.10;;
10633;SDS011;5365;51.640;8.106;2024-02-21T08:07:29;3.10;;;1.17;;
10633;SDS011;5365;51.640;8.106;2024-02-21T08:10:32;2.85;;;1.38;;
10633;SDS011;5365;51.640;8.106;2024-02-21T08:13:34;2.08;;;1.40;;
10633;SDS011;5365;51.640;8.106;2024-02-21T08:16:35;2.05;;;0.85;;
10633;SDS011;5365;51.640;8.106;2024-02-21T08:19:37;2.28;;;1.00;;
10633;SDS011;5365;51.640;8.106;2024-02-21T08:22:38;3.45;;;1.10;;
10633;SDS011;5365;51.640;8.106;2024-02-21T08:25:40;4.32;;;1.00;;
10633;SDS011;5365;51.640;8.106;2024-02-21T08:28:42;1.58;;;0.90;;
10633;SDS011;5365;51.640;8.106;2024-02-21T08:31:44;6.13;;;1.40;;
10633;SDS011;5365;51.640;8.106;2024-02-21T08:34:45;2.80;;;1.38;;
10633;SDS011;5365;51.640;8.106;2024-02-21T08:37:47;1.38;;;0.73;;
10633;SDS011;5365;51.640;8.106;2024-02-21T08:40:49;1.58;;;0.80;;
10633;SDS011;5365;51.640;8.106;2024-02-21T08:43:51;2.60;;;1.00;;
10633;SDS011;5365;51.640;8.106;2024-02-21T08:46:54;3.35;;;1.75;;
10633;SDS011;5365;51.640;8.106;2024-02-21T08:49:55;6.63;;;1.65;;
10633;SDS011;5365;51.640;8.106;2024-02-21T08:52:57;4.32;;;1.73;;
10633;SDS011;5365;51.640;8.106;2024-02-21T08:55:59;1.55;;;0.98;;
10633;SDS011;5365;51.640;8.106;2024-02-21T08:59:01;7.03;;;1.67;;
10633;SDS011;5365;51.640;8.106;2024-02-21T09:02:03;4.07;;;1.50;;
10633;SDS011;5365;51.640;8.106;2024-02-21T09:05:05;6.03;;;2.13;;
10633;SDS011;5365;51.640;8.106;2024-02-21T09:08:07;8.70;;;1.30;;
10633;SDS011;5365;51.640;8.106;2024-02-21T09:11:08;5.97;;;2.58;;
10633;SDS011;5365;51.640;8.106;2024-02-21T09:14:10;3.30;;;1.50;;
10633;SDS011;5365;51.640;8.106;2024-02-21T09:17:11;4.47;;;1.95;;
10633;SDS011;5365;51.640;8.106;2024-02-21T09:20:14;5.18;;;2.17;;
10633;SDS011;5365;51.640;8.106;2024-02-21T09:23:17;4.25;;;2.05;;
10633;SDS011;5365;51.640;8.106;2024-02-21T09:26:21;4.43;;;2.33;;
10633;SDS011;5365;51.640;8.106;2024-02-21T09:29:22;8.98;;;2.88;;
10633;SDS011;5365;51.640;8.106;2024-02-21T09:32:26;4.10;;;2.10;;
10633;SDS011;5365;51.640;8.106;2024-02-21T09:35:28;3.55;;;2.03;;
10633;SDS011;5365;51.640;8.106;2024-02-21T09:38:30;4.88;;;2.25;;
10633;SDS011;5365;51.640;8.106;2024-02-21T09:41:31;6.75;;;1.58;;
10633;SDS011;5365;51.640;8.106;2024-02-21T09:44:36;3.92;;;1.50;;
10633;SDS011;5365;51.640;8.106;2024-02-21T09:50:58;4.75;;;1.52;;
10633;SDS011;5365;51.640;8.106;2024-02-21T09:54:00;4.70;;;2.03;;
10633;SDS011;5365;51.640;8.106;2024-02-21T09:57:03;6.82;;;1.98;;
10633;SDS011;5365;51.640;8.106;2024-02-21T10:00:05;3.35;;;1.58;;
10633;SDS011;5365;51.640;8.106;2024-02-21T10:03:13;2.13;;;1.33;;
10633;SDS011;5365;51.640;8.106;2024-02-21T10:06:15;4.78;;;1.90;;
10633;SDS011;5365;51.640;8.106;2024-02-21T10:09:26;6.85;;;2.55;;
10633;SDS011;5365;51.640;8.106;2024-02-21T10:12:31;2.67;;;1.38;;
10633;SDS011;5365;51.640;8.106;2024-02-21T10:15:33;5.57;;;1.60;;
10633;SDS011;5365;51.640;8.106;2024-02-21T10:18:34;3.97;;;1.90;;
10633;SDS011;5365;51.640;8.106;2024-02-21T10:21:36;1.17;;;0.82;;
10633;SDS011;5365;51.640;8.106;2024-02-21T10:24:38;2.83;;;1.13;;
10633;SDS011;5365;51.640;8.106;2024-02-21T10:27:42;4.70;;;2.22;;
10633;SDS011;5365;51.640;8.106;2024-02-21T10:30:50;5.28;;;1.55;;
10633;SDS011;5365;51.640;8.106;2024-02-21T10:33:54;6.35;;;1.40;;
10633;SDS011;5365;51.640;8.106;2024-02-21T10:37:00;3.63;;;1.38;;
10633;SDS011;5365;51.640;8.106;2024-02-21T10:40:02;2.55;;;1.00;;
10633;SDS011;5365;51.640;8.106;2024-02-21T10:43:07;1.88;;;0.77;;
10633;SDS011;5365;51.640;8.106;2024-02-21T10:46:13;1.67;;;0.65;;
10633;SDS011;5365;51.640;8.106;2024-02-21T10:49:18;1.38;;;0.60;;
10633;SDS011;5365;51.640;8.106;2024-02-21T10:55:46;0.75;;;0.40;;
10633;SDS011;5365;51.640;8.106;2024-02-21T10:58:52;2.50;;;0.70;;
10633;SDS011;5365;51.640;8.106;2024-02-21T11:01:54;1.73;;;0.60;;
10633;SDS011;5365;51.640;8.106;2024-02-21T11:04:57;4.95;;;0.80;;
10633;SDS011;5365;51.640;8.106;2024-02-21T11:07:59;2.47;;;0.60;;
10633;SDS011;5365;51.640;8.106;2024-02-21T11:11:01;2.80;;;0.50;;
10633;SDS011;5365;51.640;8.106;2024-02-21T11:14:06;1.13;;;0.57;;
10633;SDS011;5365;51.640;8.106;2024-02-21T11:17:17;1.73;;;0.50;;
10633;SDS011;5365;51.640;8.106;2024-02-21T11:20:20;2.35;;;0.98;;
10633;SDS011;5365;51.640;8.106;2024-02-21T11:23:25;3.58;;;0.70;;
10633;SDS011;5365;51.640;8.106;2024-02-21T11:26:27;2.13;;;0.63;;
10633;SDS011;5365;51.640;8.106;2024-02-21T11:29:29;2.15;;;0.70;;
10633;SDS011;5365;51.640;8.106;2024-02-21T11:32:31;4.00;;;0.82;;
10633;SDS011;5365;51.640;8.106;2024-02-21T11:35:33;1.17;;;0.60;;
10633;SDS011;5365;51.640;8.106;2024-02-21T11:38:35;4.45;;;1.30;;
10633;SDS011;5365;51.640;8.106;2024-02-21T11:41:37;4.88;;;1.70;;
10633;SDS011;5365;51.640;8.106;2024-02-21T11:44:38;3.83;;;1.15;;
10633;SDS011;5365;51.640;8.106;2024-02-21T11:47:42;1.08;;;0.57;;
10633;SDS011;5365;51.640;8.106;2024-02-21T11:50:52;3.63;;;1.13;;
10633;SDS011;5365;51.640;8.106;2024-02-21T11:53:53;3.28;;;1.13;;
10633;SDS011;5365;51.640;8.106;2024-02-21T11:56:58;2.78;;;0.50;;
10633;SDS011;5365;51.640;8.106;2024-02-21T12:00:09;2.10;;;1.15;;
10633;SDS011;5365;51.640;8.106;2024-02-21T12:03:11;1.95;;;0.90;;
10633;SDS011;5365;51.640;8.106;2024-02-21T12:06:13;7.25;;;1.02;;
10633;SDS011;5365;51.640;8.106;2024-02-21T12:09:15;4.50;;;1.42;;
10633;SDS011;5365;51.640;8.106;2024-02-21T12:12:19;1.00;;;0.70;;
10633;SDS011;5365;51.640;8.106;2024-02-21T12:15:21;5.55;;;1.05;;
10633;SDS011;5365;51.640;8.106;2024-02-21T12:18:22;3.90;;;1.13;;
10633;SDS011;5365;51.640;8.106;2024-02-21T12:21:25;2.25;;;1.05;;
10633;SDS011;5365;51.640;8.106;2024-02-21T12:24:27;1.90;;;0.57;;
10633;SDS011;5365;51.640;8.106;2024-02-21T12:27:29;2.28;;;0.82;;
10633;SDS011;5365;51.640;8.106;2024-02-21T12:30:31;0.90;;;0.40;;
10633;SDS011;5365;51.640;8.106;2024-02-21T12:33:34;2.38;;;0.77;;
10633;SDS011;5365;51.640;8.106;2024-02-21T12:36:43;4.30;;;0.63;;
10633;SDS011;5365;51.640;8.106;2024-02-21T12:39:45;3.35;;;1.02;;
10633;SDS011;5365;51.640;8.106;2024-02-21T12:42:46;2.17;;;0.60;;
10633;SDS011;5365;51.640;8.106;2024-02-21T12:45:49;2.10;;;0.47;;
10633;SDS011;5365;51.640;8.106;2024-02-21T12:48:51;5.22;;;0.70;;
10633;SDS011;5365;51.640;8.106;2024-02-21T12:51:53;1.58;;;0.32;;
10633;SDS011;5365;51.640;8.106;2024-02-21T12:54:54;1.40;;;0.52;;
10633;SDS011;5365;51.640;8.106;2024-02-21T12:58:02;4.15;;;0.40;;
10633;SDS011;5365;51.640;8.106;2024-02-21T13:01:04;2.58;;;0.68;;
10633;SDS011;5365;51.640;8.106;2024-02-21T13:04:06;4.18;;;0.55;;
10633;SDS011;5365;51.640;8.106;2024-02-21T13:07:09;1.02;;;0.90;;
10633;SDS011;5365;51.640;8.106;2024-02-21T13:10:10;1.55;;;0.57;;
10633;SDS011;5365;51.640;8.106;2024-02-21T13:13:12;1.40;;;0.40;;
10633;SDS011;5365;51.640;8.106;2024-02-21T13:16:14;4.22;;;0.70;;
10633;SDS011;5365;51.640;8.106;2024-02-21T13:19:15;1.08;;;0.35;;
10633;SDS011;5365;51.640;8.106;2024-02-21T13:22:19;10.00;;;0.35;;
10633;SDS011;5365;51.640;8.106;2024-02-21T13:25:23;1.27;;;0.50;;
10633;SDS011;5365;51.640;8.106;2024-02-21T13:28:25;2.28;;;0.52;;
10633;SDS011;5365;51.640;8.106;2024-02-21T13:31:27;1.00;;;0.38;;
10633;SDS011;5365;51.640;8.106;2024-02-21T13:34:28;0.93;;;0.43;;
10633;SDS011;5365;51.640;8.106;2024-02-21T13:37:31;3.10;;;0.90;;
10633;SDS011;5365;51.640;8.106;2024-02-21T13:40:33;3.63;;;1.38;;
10633;SDS011;5365;51.640;8.106;2024-02-21T13:43:34;4.75;;;0.52;;
10633;SDS011;5365;51.640;8.106;2024-02-21T13:46:36;0.82;;;0.50;;
10633;SDS011;5365;51.640;8.106;2024-02-21T13:49:38;1.48;;;0.52;;
10633;SDS011;5365;51.640;8.106;2024-02-21T13:52:41;1.23;;;0.93;;
10633;SDS011;5365;51.640;8.106;2024-02-21T13:55:42;1.17;;;0.40;;
10633;SDS011;5365;51.640;8.106;2024-02-21T13:58:45;1.95;;;0.50;;
10633;SDS011;5365;51.640;8.106;2024-02-21T14:01:47;0.50;;;0.20;;
10633;SDS011;5365;51.640;8.106;2024-02-21T14:04:48;1.02;;;0.88;;
10633;SDS011;5365;51.640;8.106;2024-02-21T14:07:50;1.55;;;0.95;;
10633;SDS011;5365;51.640;8.106;2024-02-21T14:10:52;2.72;;;0.65;;
10633;SDS011;5365;51.640;8.106;2024-02-21T14:13:53;1.77;;;0.77;;
10633;SDS011;5365;51.640;8.106;2024-02-21T14:16:58;2.13;;;0.98;;
10633;SDS011;5365;51.640;8.106;2024-02-21T14:20:00;2.83;;;0.45;;
10633;SDS011;5365;51.640;8.106;2024-02-21T14:23:02;1.77;;;0.80;;
10633;SDS011;5365;51.640;8.106;2024-02-21T14:26:04;3.03;;;1.10;;
10633;SDS011;5365;51.640;8.106;2024-02-21T14:29:05;5.03;;;0.80;;
10633;SDS011;5365;51.640;8.106;2024-02-21T14:32:07;1.20;;;0.60;;
10633;SDS011;5365;51.640;8.106;2024-02-21T14:35:11;1.40;;;0.40;;
10633;SDS011;5365;51.640;8.106;2024-02-21T14:38:13;1.20;;;0.90;;
10633;SDS011;5365;51.640;8.106;2024-02-21T14:41:14;1.42;;;0.63;;
10633;SDS011;5365;51.640;8.106;2024-02-21T14:44:16;3.63;;;0.55;;
10633;SDS011;5365;51.640;8.106;2024-02-21T14:47:18;1.52;;;1.05;;
10633;SDS011;5365;51.640;8.106;2024-02-21T14:50:20;2.90;;;0.70;;
10633;SDS011;5365;51.640;8.106;2024-02-21T14:53:22;0.73;;;0.43;;
10633;SDS011;5365;51.640;8.106;2024-02-21T14:56:23;2.13;;;0.90;;
10633;SDS011;5365;51.640;8.106;2024-02-21T14:59:25;1.27;;;0.63;;
10633;SDS011;5365;51.640;8.106;2024-02-21T15:02:29;1.13;;;0.50;;
10633;SDS011;5365;51.640;8.106;2024-02-21T15:05:31;1.63;;;0.77;;
10633;SDS011;5365;51.640;8.106;2024-02-21T15:08:35;4.75;;;0.98;;
10633;SDS011;5365;51.640;8.106;2024-02-21T15:11:37;1.77;;;0.73;;
10633;SDS011;5365;51.640;8.106;2024-02-21T15:14:39;2.00;;;0.75;;
10633;SDS011;5365;51.640;8.106;2024-02-21T15:17:40;2.53;;;0.63;;
10633;SDS011;5365;51.640;8.106;2024-02-21T15:20:42;2.58;;;1.00;;
10633;SDS011;5365;51.640;8.106;2024-02-21T15:23:44;1.33;;;0.95;;
10633;SDS011;5365;51.640;8.106;2024-02-21T15:26:46;3.03;;;1.17;;
10633;SDS011;5365;51.640;8.106;2024-02-21T15:29:47;1.35;;;0.40;;
10633;SDS011;5365;51.640;8.106;2024-02-21T15:32:49;1.38;;;0.38;;
10633;SDS011;5365;51.640;8.106;2024-02-21T15:35:51;8.27;;;0.88;;
10633;SDS011;5365;51.640;8.106;2024-02-21T15:38:52;1.48;;;0.40;;
10633;SDS011;5365;51.640;8.106;2024-02-21T15:41:54;2.20;;;0.50;;
10633;SDS011;5365;51.640;8.106;2024-02-21T15:44:57;3.00;;;0.82;;
10633;SDS011;5365;51.640;8.106;2024-02-21T15:47:59;3.13;;;0.73;;
10633;SDS011;5365;51.640;8.106;2024-02-21T15:51:01;0.63;;;0.32;;
10633;SDS011;5365;51.640;8.106;2024-02-21T15:54:05;0.52;;;0.22;;
10633;SDS011;5365;51.640;8.106;2024-02-21T15:57:07;2.55;;;0.50;;
10633;SDS011;5365;51.640;8.106;2024-02-21T16:00:09;1.52;;;0.80;;
10633;SDS011;5365;51.640;8.106;2024-02-21T16:03:14;0.32;;;0.10;;
10633;SDS011;5365;51.640;8.106;2024-02-21T16:06:16;1.33;;;0.45;;
10633;SDS011;5365;51.640;8.106;2024-02-21T16:09:18;1.45;;;0.68;;
10633;SDS011;5365;51.640;8.106;2024-02-21T16:12:19;1.20;;;0.28;;
10633;SDS011;5365;51.640;8.106;2024-02-21T16:15:21;2.00;;;0.55;;
10633;SDS011;5365;51.640;8.106;2024-02-21T16:18:24;1.08;;;0.22;;
10633;SDS011;5365;51.640;8.106;2024-02-21T16:21:26;1.48;;;0.73;;
10633;SDS011;5365;51.640;8.106;2024-02-21T16:24:28;2.22;;;0.15;;
10633;SDS011;5365;51.640;8.106;2024-02-21T16:27:30;2.75;;;0.88;;
10633;SDS011;5365;51.640;8.106;2024-02-21T16:30:32;0.50;;;0.30;;
10633;SDS011;5365;51.640;8.106;2024-02-21T16:33:33;1.25;;;0.47;;
10633;SDS011;5365;51.640;8.106;2024-02-21T16:36:36;0.40;;;0.17;;
10633;SDS011;5365;51.640;8.106;2024-02-21T16:39:39;0.55;;;0.30;;
10633;SDS011;5365;51.640;8.106;2024-02-21T16:42:41;2.67;;;0.40;;
10633;SDS011;5365;51.640;8.106;2024-02-21T16:45:44;0.35;;;0.20;;
10633;SDS011;5365;51.640;8.106;2024-02-21T16:48:45;0.22;;;0.00;;
10633;SDS011;5365;51.640;8.106;2024-02-21T16:51:47;0.50;;;0.30;;
10633;SDS011;5365;51.640;8.106;2024-02-21T16:54:50;0.52;;;0.38;;
10633;SDS011;5365;51.640;8.106;2024-02-21T16:57:51;3.80;;;0.35;;
10633;SDS011;5365;51.640;8.106;2024-02-21T17:00:53;3.10;;;0.52;;
10633;SDS011;5365;51.640;8.106;2024-02-21T17:03:55;0.80;;;0.40;;
10633;SDS011;5365;51.640;8.106;2024-02-21T17:06:57;0.32;;;0.20;;
10633;SDS011;5365;51.640;8.106;2024-02-21T17:09:59;1.27;;;0.68;;
10633;SDS011;5365;51.640;8.106;2024-02-21T17:13:01;0.22;;;0.10;;
10633;SDS011;5365;51.640;8.106;2024-02-21T17:16:03;0.40;;;0.20;;
10633;SDS011;5365;51.640;8.106;2024-02-21T17:19:05;0.50;;;0.20;;
10633;SDS011;5365;51.640;8.106;2024-02-21T17:22:07;0.63;;;0.38;;
10633;SDS011;5365;51.640;8.106;2024-02-21T17:25:09;0.95;;;0.47;;
10633;SDS011;5365;51.640;8.106;2024-02-21T17:28:12;0.20;;;0.00;;
10633;SDS011;5365;51.640;8.106;2024-02-21T17:31:13;1.95;;;0.57;;
10633;SDS011;5365;51.640;8.106;2024-02-21T17:34:15;2.35;;;0.82;;
10633;SDS011;5365;51.640;8.106;2024-02-21T17:37:17;3.90;;;0.65;;
10633;SDS011;5365;51.640;8.106;2024-02-21T17:40:18;1.10;;;0.35;;
10633;SDS011;5365;51.640;8.106;2024-02-21T17:43:20;1.88;;;1.27;;
10633;SDS011;5365;51.640;8.106;2024-02-21T17:46:22;0.57;;;0.20;;
10633;SDS011;5365;51.640;8.106;2024-02-21T17:49:24;0.50;;;0.20;;
10633;SDS011;5365;51.640;8.106;2024-02-21T17:52:26;0.32;;;0.08;;
10633;SDS011;5365;51.640;8.106;2024-02-21T17:55:28;1.63;;;0.28;;
10633;SDS011;5365;51.640;8.106;2024-02-21T17:58:31;1.10;;;0.45;;
10633;SDS011;5365;51.640;8.106;2024-02-21T18:01:32;2.15;;;0.47;;
10633;SDS011;5365;51.640;8.106;2024-02-21T18:04:34;0.50;;;0.17;;
10633;SDS011;5365;51.640;8.106;2024-02-21T18:07:39;1.33;;;0.10;;
10633;SDS011;5365;51.640;8.106;2024-02-21T18:10:42;0.40;;;0.20;;
10633;SDS011;5365;51.640;8.106;2024-02-21T18:13:43;0.10;;;0.10;;
10633;SDS011;5365;51.640;8.106;2024-02-21T18:16:45;0.10;;;0.00;;
10633;SDS011;5365;51.640;8.106;2024-02-21T18:19:47;1.27;;;0.47;;
10633;SDS011;5365;51.640;8.106;2024-02-21T18:22:49;2.00;;;0.50;;
10633;SDS011;5365;51.640;8.106;2024-02-21T18:25:51;0.30;;;0.30;;
10633;SDS011;5365;51.640;8.106;2024-02-21T18:28:54;1.25;;;0.38;;
10633;SDS011;5365;51.640;8.106;2024-02-21T18:31:56;1.35;;;0.50;;
10633;SDS011;5365;51.640;8.106;2024-02-21T18:34:57;0.45;;;0.25;;
10633;SDS011;5365;51.640;8.106;2024-02-21T18:37:59;0.20;;;0.17;;
10633;SDS011;5365;51.640;8.106;2024-02-21T18:41:03;0.13;;;0.10;;